Terminal Aerodrome Forecast
Issued by NWS North Platte, NE

Home | Current Version | Previous Version | Text Only | Print | Product List | Glossary Off
Versions: 1 2 3 4 5 6 7 8 9 10 11 12

000
FTUS43 KLBF 191100
TAFVTN
TAF
KVTN 191120Z 1912/2012 VRB04KT P6SM SCT150
     FM191600 15006KT P6SM SCT200
     FM191900 15010G18KT P6SM SCT200
     FM200000 13010KT P6SM SCT150 BKN200
      TEMPO 2003/2006 5SM TSRA BKN060CB=

USA.gov is the U.S. government's official web portal to all federal, state and local government web resources and services.